sensor_id;sensor_type;location;lat;lon;timestamp;temperature;humidity
14397;DHT22;50653;47.810;13.022;2023-05-18T00:02:24;9.70;99.90
14397;DHT22;50653;47.810;13.022;2023-05-18T00:04:50;9.70;99.90
14397;DHT22;50653;47.810;13.022;2023-05-18T00:07:16;9.80;99.90
14397;DHT22;50653;47.810;13.022;2023-05-18T00:09:42;9.70;99.90
14397;DHT22;50653;47.810;13.022;2023-05-18T00:12:08;9.70;99.90
14397;DHT22;50653;47.810;13.022;2023-05-18T00:14:34;9.70;99.90
14397;DHT22;50653;47.810;13.022;2023-05-18T00:17:00;9.50;99.90
14397;DHT22;50653;47.810;13.022;2023-05-18T00:19:26;9.50;99.90
14397;DHT22;50653;47.810;13.022;2023-05-18T00:21:53;9.50;99.90
14397;DHT22;50653;47.810;13.022;2023-05-18T00:24:20;9.40;99.90
14397;DHT22;50653;47.810;13.022;2023-05-18T00:26:47;9.40;99.90
14397;DHT22;50653;47.810;13.022;2023-05-18T00:29:14;9.50;99.90
14397;DHT22;50653;47.810;13.022;2023-05-18T00:31:40;9.50;99.90
14397;DHT22;50653;47.810;13.022;2023-05-18T00:34:07;9.60;99.90
14397;DHT22;50653;47.810;13.022;2023-05-18T00:36:34;9.50;99.90
14397;DHT22;50653;47.810;13.022;2023-05-18T00:39:00;9.60;99.90
14397;DHT22;50653;47.810;13.022;2023-05-18T00:41:27;9.60;99.90
14397;DHT22;50653;47.810;13.022;2023-05-18T00:43:53;9.60;99.90
14397;DHT22;50653;47.810;13.022;2023-05-18T00:46:19;9.50;99.90
14397;DHT22;50653;47.810;13.022;2023-05-18T00:48:46;9.60;99.90
14397;DHT22;50653;47.810;13.022;2023-05-18T00:51:13;9.50;99.90
14397;DHT22;50653;47.810;13.022;2023-05-18T00:53:38;9.40;99.90
14397;DHT22;50653;47.810;13.022;2023-05-18T00:56:06;9.50;99.90
14397;DHT22;50653;47.810;13.022;2023-05-18T00:58:31;9.60;99.90
14397;DHT22;50653;47.810;13.022;2023-05-18T01:00:57;9.60;99.90
14397;DHT22;50653;47.810;13.022;2023-05-18T01:03:23;9.60;99.90
14397;DHT22;50653;47.810;13.022;2023-05-18T01:05:50;9.50;99.90
14397;DHT22;50653;47.810;13.022;2023-05-18T01:08:22;9.60;99.90
14397;DHT22;50653;47.810;13.022;2023-05-18T01:10:58;9.50;99.90
14397;DHT22;50653;47.810;13.022;2023-05-18T01:13:37;9.40;99.90
14397;DHT22;50653;47.810;13.022;2023-05-18T01:16:09;9.40;99.90
14397;DHT22;50653;47.810;13.022;2023-05-18T01:18:40;9.60;99.90
14397;DHT22;50653;47.810;13.022;2023-05-18T01:21:18;9.60;99.90
14397;DHT22;50653;47.810;13.022;2023-05-18T01:26:34;9.40;99.90
14397;DHT22;50653;47.810;13.022;2023-05-18T01:29:08;9.50;99.90
14397;DHT22;50653;47.810;13.022;2023-05-18T01:31:35;9.30;99.90
14397;DHT22;50653;47.810;13.022;2023-05-18T01:34:01;9.40;99.90
14397;DHT22;50653;47.810;13.022;2023-05-18T01:36:27;9.40;99.90
14397;DHT22;50653;47.810;13.022;2023-05-18T01:38:53;9.40;99.90
14397;DHT22;50653;47.810;13.022;2023-05-18T01:41:22;9.50;99.90
14397;DHT22;50653;47.810;13.022;2023-05-18T01:46:58;9.50;99.90
14397;DHT22;50653;47.810;13.022;2023-05-18T01:49:47;9.40;99.90
14397;DHT22;50653;47.810;13.022;2023-05-18T01:52:41;9.50;99.90
14397;DHT22;50653;47.810;13.022;2023-05-18T01:55:05;9.40;99.90
14397;DHT22;50653;47.810;13.022;2023-05-18T01:57:34;9.50;99.90
14397;DHT22;50653;47.810;13.022;2023-05-18T02:00:02;9.40;99.90
14397;DHT22;50653;47.810;13.022;2023-05-18T02:02:41;9.40;99.90
14397;DHT22;50653;47.810;13.022;2023-05-18T02:05:08;9.20;99.90
14397;DHT22;50653;47.810;13.022;2023-05-18T02:07:38;9.00;99.90
14397;DHT22;50653;47.810;13.022;2023-05-18T02:10:05;8.90;99.90
14397;DHT22;50653;47.810;13.022;2023-05-18T02:12:31;9.10;99.90
14397;DHT22;50653;47.810;13.022;2023-05-18T02:14:57;9.30;99.90
14397;DHT22;50653;47.810;13.022;2023-05-18T02:17:25;9.20;99.90
14397;DHT22;50653;47.810;13.022;2023-05-18T02:19:51;9.40;99.90
14397;DHT22;50653;47.810;13.022;2023-05-18T02:22:17;9.40;99.90
14397;DHT22;50653;47.810;13.022;2023-05-18T02:24:42;9.50;99.90
14397;DHT22;50653;47.810;13.022;2023-05-18T02:27:10;9.50;99.90
14397;DHT22;50653;47.810;13.022;2023-05-18T02:29:36;9.50;99.90
14397;DHT22;50653;47.810;13.022;2023-05-18T02:32:02;9.30;99.90
14397;DHT22;50653;47.810;13.022;2023-05-18T02:34:28;9.20;99.90
14397;DHT22;50653;47.810;13.022;2023-05-18T02:36:57;9.20;99.90
14397;DHT22;50653;47.810;13.022;2023-05-18T02:39:29;9.30;99.90
14397;DHT22;50653;47.810;13.022;2023-05-18T02:41:55;9.30;99.90
14397;DHT22;50653;47.810;13.022;2023-05-18T02:44:21;9.40;99.90
14397;DHT22;50653;47.810;13.022;2023-05-18T02:46:47;9.50;99.90
14397;DHT22;50653;47.810;13.022;2023-05-18T02:49:13;9.50;99.90
14397;DHT22;50653;47.810;13.022;2023-05-18T02:51:39;9.50;99.90
14397;DHT22;50653;47.810;13.022;2023-05-18T02:54:05;9.30;99.90
14397;DHT22;50653;47.810;13.022;2023-05-18T02:56:34;9.20;99.90
14397;DHT22;50653;47.810;13.022;2023-05-18T02:59:09;9.30;99.90
14397;DHT22;50653;47.810;13.022;2023-05-18T03:01:39;9.40;99.90
14397;DHT22;50653;47.810;13.022;2023-05-18T03:04:05;9.20;99.90
14397;DHT22;50653;47.810;13.022;2023-05-18T03:06:32;9.30;99.90
14397;DHT22;50653;47.810;13.022;2023-05-18T03:09:00;9.30;99.90
14397;DHT22;50653;47.810;13.022;2023-05-18T03:11:34;9.30;99.90
14397;DHT22;50653;47.810;13.022;2023-05-18T03:14:00;9.20;99.90
14397;DHT22;50653;47.810;13.022;2023-05-18T03:16:26;9.30;99.90
14397;DHT22;50653;47.810;13.022;2023-05-18T03:18:56;9.40;99.90
14397;DHT22;50653;47.810;13.022;2023-05-18T03:21:31;9.40;99.90
14397;DHT22;50653;47.810;13.022;2023-05-18T03:24:02;9.40;99.90
14397;DHT22;50653;47.810;13.022;2023-05-18T03:26:29;9.40;99.90
14397;DHT22;50653;47.810;13.022;2023-05-18T03:28:56;9.50;99.90
14397;DHT22;50653;47.810;13.022;2023-05-18T03:31:22;9.40;99.90
14397;DHT22;50653;47.810;13.022;2023-05-18T03:33:47;9.40;99.90
14397;DHT22;50653;47.810;13.022;2023-05-18T03:36:14;9.40;99.90
14397;DHT22;50653;47.810;13.022;2023-05-18T03:38:41;9.20;99.90
14397;DHT22;50653;47.810;13.022;2023-05-18T03:41:10;9.30;99.90
14397;DHT22;50653;47.810;13.022;2023-05-18T03:43:36;9.10;99.90
14397;DHT22;50653;47.810;13.022;2023-05-18T03:46:02;9.20;99.90
14397;DHT22;50653;47.810;13.022;2023-05-18T03:48:28;9.20;99.90
14397;DHT22;50653;47.810;13.022;2023-05-18T03:50:54;9.30;99.90
14397;DHT22;50653;47.810;13.022;2023-05-18T03:53:21;9.40;99.90
14397;DHT22;50653;47.810;13.022;2023-05-18T03:55:47;9.20;99.90
14397;DHT22;50653;47.810;13.022;2023-05-18T03:58:16;9.20;99.90
14397;DHT22;50653;47.810;13.022;2023-05-18T04:00:46;9.30;99.90
14397;DHT22;50653;47.810;13.022;2023-05-18T04:03:12;9.30;99.90
14397;DHT22;50653;47.810;13.022;2023-05-18T04:05:40;9.30;99.90
14397;DHT22;50653;47.810;13.022;2023-05-18T04:08:08;9.30;99.90
14397;DHT22;50653;47.810;13.022;2023-05-18T04:10:34;9.40;99.90
14397;DHT22;50653;47.810;13.022;2023-05-18T04:13:00;9.40;99.90
14397;DHT22;50653;47.810;13.022;2023-05-18T04:15:25;9.40;99.90
14397;DHT22;50653;47.810;13.022;2023-05-18T04:17:51;9.30;99.90
14397;DHT22;50653;47.810;13.022;2023-05-18T04:20:18;9.10;99.90
14397;DHT22;50653;47.810;13.022;2023-05-18T04:22:46;9.20;99.90
14397;DHT22;50653;47.810;13.022;2023-05-18T04:25:13;9.10;99.90
14397;DHT22;50653;47.810;13.022;2023-05-18T04:27:41;9.10;99.90
14397;DHT22;50653;47.810;13.022;2023-05-18T04:30:08;9.20;99.90
14397;DHT22;50653;47.810;13.022;2023-05-18T04:32:35;9.20;99.90
14397;DHT22;50653;47.810;13.022;2023-05-18T04:35:10;9.40;99.90
14397;DHT22;50653;47.810;13.022;2023-05-18T04:37:36;9.40;99.90
14397;DHT22;50653;47.810;13.022;2023-05-18T04:40:07;9.40;99.90
14397;DHT22;50653;47.810;13.022;2023-05-18T04:42:38;9.40;99.90
14397;DHT22;50653;47.810;13.022;2023-05-18T04:45:15;9.50;99.90
14397;DHT22;50653;47.810;13.022;2023-05-18T04:47:43;9.50;99.90
14397;DHT22;50653;47.810;13.022;2023-05-18T04:50:17;9.50;99.90
14397;DHT22;50653;47.810;13.022;2023-05-18T04:52:47;9.20;99.90
14397;DHT22;50653;47.810;13.022;2023-05-18T04:55:18;9.10;99.90
14397;DHT22;50653;47.810;13.022;2023-05-18T04:57:51;9.20;99.90
14397;DHT22;50653;47.810;13.022;2023-05-18T05:00:22;9.40;99.90
14397;DHT22;50653;47.810;13.022;2023-05-18T05:02:49;9.40;99.90
14397;DHT22;50653;47.810;13.022;2023-05-18T05:05:15;9.50;99.90
14397;DHT22;50653;47.810;13.022;2023-05-18T05:07:41;9.50;99.90
14397;DHT22;50653;47.810;13.022;2023-05-18T05:10:08;9.50;99.90
14397;DHT22;50653;47.810;13.022;2023-05-18T05:12:37;9.60;99.90
14397;DHT22;50653;47.810;13.022;2023-05-18T05:15:04;9.60;99.90
14397;DHT22;50653;47.810;13.022;2023-05-18T05:17:30;9.60;99.90
14397;DHT22;50653;47.810;13.022;2023-05-18T05:19:56;9.40;99.90
14397;DHT22;50653;47.810;13.022;2023-05-18T05:22:22;9.10;99.90
14397;DHT22;50653;47.810;13.022;2023-05-18T05:24:49;9.30;99.90
14397;DHT22;50653;47.810;13.022;2023-05-18T05:27:14;9.40;99.90
14397;DHT22;50653;47.810;13.022;2023-05-18T05:29:40;9.50;99.90
14397;DHT22;50653;47.810;13.022;2023-05-18T05:32:07;9.50;99.90
14397;DHT22;50653;47.810;13.022;2023-05-18T05:34:33;9.50;99.90
14397;DHT22;50653;47.810;13.022;2023-05-18T05:36:59;9.50;99.90
14397;DHT22;50653;47.810;13.022;2023-05-18T05:39:25;9.50;99.90
14397;DHT22;50653;47.810;13.022;2023-05-18T05:41:51;9.50;99.90
14397;DHT22;50653;47.810;13.022;2023-05-18T05:44:17;9.60;99.90
14397;DHT22;50653;47.810;13.022;2023-05-18T05:46:43;9.60;99.90
14397;DHT22;50653;47.810;13.022;2023-05-18T05:49:10;9.60;99.90
14397;DHT22;50653;47.810;13.022;2023-05-18T05:51:36;9.60;99.90
14397;DHT22;50653;47.810;13.022;2023-05-18T05:54:02;9.60;99.90
14397;DHT22;50653;47.810;13.022;2023-05-18T05:56:28;9.60;99.90
14397;DHT22;50653;47.810;13.022;2023-05-18T05:58:54;9.60;99.90
14397;DHT22;50653;47.810;13.022;2023-05-18T06:01:20;9.60;99.90
14397;DHT22;50653;47.810;13.022;2023-05-18T06:03:47;9.70;99.90
14397;DHT22;50653;47.810;13.022;2023-05-18T06:06:13;9.80;99.90
14397;DHT22;50653;47.810;13.022;2023-05-18T06:08:39;9.80;99.90
14397;DHT22;50653;47.810;13.022;2023-05-18T06:11:05;9.50;99.90
14397;DHT22;50653;47.810;13.022;2023-05-18T06:13:31;9.60;99.90
14397;DHT22;50653;47.810;13.022;2023-05-18T06:15:57;9.60;99.90
14397;DHT22;50653;47.810;13.022;2023-05-18T06:18:23;9.70;99.90
14397;DHT22;50653;47.810;13.022;2023-05-18T06:20:51;9.80;99.90
14397;DHT22;50653;47.810;13.022;2023-05-18T06:23:19;9.80;99.90
14397;DHT22;50653;47.810;13.022;2023-05-18T06:26:07;9.90;99.90
14397;DHT22;50653;47.810;13.022;2023-05-18T06:28:33;9.90;99.90
14397;DHT22;50653;47.810;13.022;2023-05-18T06:31:08;10.00;99.90
14397;DHT22;50653;47.810;13.022;2023-05-18T06:33:43;10.10;99.90
14397;DHT22;50653;47.810;13.022;2023-05-18T06:36:09;10.10;99.90
14397;DHT22;50653;47.810;13.022;2023-05-18T06:38:34;10.10;99.90
14397;DHT22;50653;47.810;13.022;2023-05-18T06:41:00;10.20;99.90
14397;DHT22;50653;47.810;13.022;2023-05-18T06:43:26;10.20;99.90
14397;DHT22;50653;47.810;13.022;2023-05-18T06:46:22;10.30;99.90
14397;DHT22;50653;47.810;13.022;2023-05-18T06:48:55;10.20;99.90
14397;DHT22;50653;47.810;13.022;2023-05-18T06:51:21;10.30;99.90
14397;DHT22;50653;47.810;13.022;2023-05-18T06:53:47;10.30;99.90
14397;DHT22;50653;47.810;13.022;2023-05-18T06:56:13;10.30;99.90
14397;DHT22;50653;47.810;13.022;2023-05-18T06:58:41;10.30;99.90
14397;DHT22;50653;47.810;13.022;2023-05-18T07:01:08;10.40;99.90
14397;DHT22;50653;47.810;13.022;2023-05-18T07:03:33;10.40;99.90
14397;DHT22;50653;47.810;13.022;2023-05-18T07:06:00;10.50;99.90
14397;DHT22;50653;47.810;13.022;2023-05-18T07:08:27;10.50;99.90
14397;DHT22;50653;47.810;13.022;2023-05-18T07:10:52;10.60;99.90
14397;DHT22;50653;47.810;13.022;2023-05-18T07:13:19;10.70;99.90
14397;DHT22;50653;47.810;13.022;2023-05-18T07:15:45;10.70;99.90
14397;DHT22;50653;47.810;13.022;2023-05-18T07:18:11;10.70;99.90
14397;DHT22;50653;47.810;13.022;2023-05-18T07:20:37;10.70;99.90
14397;DHT22;50653;47.810;13.022;2023-05-18T07:23:02;10.70;99.90
14397;DHT22;50653;47.810;13.022;2023-05-18T07:25:29;10.70;99.90
14397;DHT22;50653;47.810;13.022;2023-05-18T07:27:55;10.60;99.90
14397;DHT22;50653;47.810;13.022;2023-05-18T07:30:21;10.60;99.90
14397;DHT22;50653;47.810;13.022;2023-05-18T07:32:47;10.70;99.90
14397;DHT22;50653;47.810;13.022;2023-05-18T07:35:13;10.70;99.90
14397;DHT22;50653;47.810;13.022;2023-05-18T07:37:41;10.80;99.90
14397;DHT22;50653;47.810;13.022;2023-05-18T07:40:07;10.90;99.90
14397;DHT22;50653;47.810;13.022;2023-05-18T07:42:34;10.90;99.90
14397;DHT22;50653;47.810;13.022;2023-05-18T07:45:00;10.90;99.90
14397;DHT22;50653;47.810;13.022;2023-05-18T07:47:26;11.00;99.90
14397;DHT22;50653;47.810;13.022;2023-05-18T07:49:51;11.10;99.90
14397;DHT22;50653;47.810;13.022;2023-05-18T07:52:17;11.00;99.90
14397;DHT22;50653;47.810;13.022;2023-05-18T07:54:42;11.10;99.90
14397;DHT22;50653;47.810;13.022;2023-05-18T07:57:08;11.20;99.90
14397;DHT22;50653;47.810;13.022;2023-05-18T07:59:34;11.30;99.90
14397;DHT22;50653;47.810;13.022;2023-05-18T08:01:59;11.40;99.90
14397;DHT22;50653;47.810;13.022;2023-05-18T08:04:27;11.40;99.90
14397;DHT22;50653;47.810;13.022;2023-05-18T08:06:52;11.50;99.90
14397;DHT22;50653;47.810;13.022;2023-05-18T08:09:20;11.50;99.90
14397;DHT22;50653;47.810;13.022;2023-05-18T08:11:46;11.50;99.90
14397;DHT22;50653;47.810;13.022;2023-05-18T08:14:12;11.60;99.90
14397;DHT22;50653;47.810;13.022;2023-05-18T08:16:38;11.70;99.90
14397;DHT22;50653;47.810;13.022;2023-05-18T08:19:04;11.70;99.90
14397;DHT22;50653;47.810;13.022;2023-05-18T08:21:30;11.80;99.90
14397;DHT22;50653;47.810;13.022;2023-05-18T08:23:56;11.80;99.90
14397;DHT22;50653;47.810;13.022;2023-05-18T08:26:21;11.90;99.90
14397;DHT22;50653;47.810;13.022;2023-05-18T08:28:47;11.90;99.90
14397;DHT22;50653;47.810;13.022;2023-05-18T08:31:14;11.90;99.90
14397;DHT22;50653;47.810;13.022;2023-05-18T08:33:40;12.00;99.90
14397;DHT22;50653;47.810;13.022;2023-05-18T08:36:07;12.00;99.90
14397;DHT22;50653;47.810;13.022;2023-05-18T08:38:33;12.00;99.90
14397;DHT22;50653;47.810;13.022;2023-05-18T08:41:22;12.10;99.90
14397;DHT22;50653;47.810;13.022;2023-05-18T08:44:05;12.10;99.90
14397;DHT22;50653;47.810;13.022;2023-05-18T08:46:32;12.00;99.90
14397;DHT22;50653;47.810;13.022;2023-05-18T08:48:59;11.90;99.90
14397;DHT22;50653;47.810;13.022;2023-05-18T08:51:28;12.10;99.90
14397;DHT22;50653;47.810;13.022;2023-05-18T08:53:54;12.10;99.90
14397;DHT22;50653;47.810;13.022;2023-05-18T08:56:23;12.00;99.90
14397;DHT22;50653;47.810;13.022;2023-05-18T08:58:53;12.00;99.90
14397;DHT22;50653;47.810;13.022;2023-05-18T09:01:19;12.00;99.90
14397;DHT22;50653;47.810;13.022;2023-05-18T09:03:47;12.00;99.90
14397;DHT22;50653;47.810;13.022;2023-05-18T09:06:14;12.10;99.90
14397;DHT22;50653;47.810;13.022;2023-05-18T09:08:41;12.10;99.90
14397;DHT22;50653;47.810;13.022;2023-05-18T09:11:07;12.20;99.90
14397;DHT22;50653;47.810;13.022;2023-05-18T09:13:33;12.20;99.90
14397;DHT22;50653;47.810;13.022;2023-05-18T09:15:58;12.20;99.90
14397;DHT22;50653;47.810;13.022;2023-05-18T09:18:24;12.20;99.90
14397;DHT22;50653;47.810;13.022;2023-05-18T09:20:50;12.20;99.90
14397;DHT22;50653;47.810;13.022;2023-05-18T09:23:16;12.30;99.90
14397;DHT22;50653;47.810;13.022;2023-05-18T09:25:44;12.30;99.90
14397;DHT22;50653;47.810;13.022;2023-05-18T09:28:21;12.40;99.90
14397;DHT22;50653;47.810;13.022;2023-05-18T09:30:50;12.20;99.90
14397;DHT22;50653;47.810;13.022;2023-05-18T09:33:20;12.30;99.90
14397;DHT22;50653;47.810;13.022;2023-05-18T09:35:49;12.40;99.90
14397;DHT22;50653;47.810;13.022;2023-05-18T09:38:17;12.40;99.90
14397;DHT22;50653;47.810;13.022;2023-05-18T09:40:48;12.30;99.90
14397;DHT22;50653;47.810;13.022;2023-05-18T09:43:16;12.40;99.90
14397;DHT22;50653;47.810;13.022;2023-05-18T09:45:44;12.20;99.90
14397;DHT22;50653;47.810;13.022;2023-05-18T09:48:10;12.30;99.90
14397;DHT22;50653;47.810;13.022;2023-05-18T09:50:36;12.40;99.90
14397;DHT22;50653;47.810;13.022;2023-05-18T09:53:05;12.50;99.90
14397;DHT22;50653;47.810;13.022;2023-05-18T09:55:31;12.60;99.90
14397;DHT22;50653;47.810;13.022;2023-05-18T09:58:00;12.60;99.90
14397;DHT22;50653;47.810;13.022;2023-05-18T10:00:27;12.60;99.90
14397;DHT22;50653;47.810;13.022;2023-05-18T10:02:53;12.60;99.90
14397;DHT22;50653;47.810;13.022;2023-05-18T10:05:24;12.60;99.90
14397;DHT22;50653;47.810;13.022;2023-05-18T10:07:52;12.60;99.90
14397;DHT22;50653;47.810;13.022;2023-05-18T10:10:20;12.60;99.90
14397;DHT22;50653;47.810;13.022;2023-05-18T10:12:48;12.60;99.90
14397;DHT22;50653;47.810;13.022;2023-05-18T10:15:17;12.70;99.90
14397;DHT22;50653;47.810;13.022;2023-05-18T10:17:44;12.70;99.90
14397;DHT22;50653;47.810;13.022;2023-05-18T10:20:14;12.70;99.90
14397;DHT22;50653;47.810;13.022;2023-05-18T10:22:44;12.80;99.90
14397;DHT22;50653;47.810;13.022;2023-05-18T10:25:20;12.90;99.90
14397;DHT22;50653;47.810;13.022;2023-05-18T10:27:53;13.00;99.90
14397;DHT22;50653;47.810;13.022;2023-05-18T10:30:21;12.90;99.90
14397;DHT22;50653;47.810;13.022;2023-05-18T10:32:47;12.80;99.90
14397;DHT22;50653;47.810;13.022;2023-05-18T10:35:13;12.90;99.90
14397;DHT22;50653;47.810;13.022;2023-05-18T10:37:44;12.90;99.90
14397;DHT22;50653;47.810;13.022;2023-05-18T10:40:12;13.00;99.90
14397;DHT22;50653;47.810;13.022;2023-05-18T10:42:39;13.00;99.90
14397;DHT22;50653;47.810;13.022;2023-05-18T10:45:06;13.00;99.90
14397;DHT22;50653;47.810;13.022;2023-05-18T10:47:35;13.00;99.90
14397;DHT22;50653;47.810;13.022;2023-05-18T10:50:04;13.10;99.90
14397;DHT22;50653;47.810;13.022;2023-05-18T10:52:31;13.10;99.90
14397;DHT22;50653;47.810;13.022;2023-05-18T10:54:59;13.20;99.90
14397;DHT22;50653;47.810;13.022;2023-05-18T10:57:28;13.20;99.90
14397;DHT22;50653;47.810;13.022;2023-05-18T10:59:56;13.30;99.90
14397;DHT22;50653;47.810;13.022;2023-05-18T11:02:23;13.30;99.90
14397;DHT22;50653;47.810;13.022;2023-05-18T11:04:52;13.30;99.90
14397;DHT22;50653;47.810;13.022;2023-05-18T11:07:19;13.50;99.90
14397;DHT22;50653;47.810;13.022;2023-05-18T11:09:47;13.50;99.90
14397;DHT22;50653;47.810;13.022;2023-05-18T11:12:15;13.50;99.90
14397;DHT22;50653;47.810;13.022;2023-05-18T11:14:53;13.50;99.90
14397;DHT22;50653;47.810;13.022;2023-05-18T11:17:24;13.50;99.90
14397;DHT22;50653;47.810;13.022;2023-05-18T11:22:48;13.60;99.90
14397;DHT22;50653;47.810;13.022;2023-05-18T11:27:55;13.60;99.90
14397;DHT22;50653;47.810;13.022;2023-05-18T11:33:08;13.70;99.90
14397;DHT22;50653;47.810;13.022;2023-05-18T11:36:10;13.60;99.90
14397;DHT22;50653;47.810;13.022;2023-05-18T11:39:03;13.70;99.90
14397;DHT22;50653;47.810;13.022;2023-05-18T11:41:34;13.90;99.90
14397;DHT22;50653;47.810;13.022;2023-05-18T11:44:03;13.90;99.90
14397;DHT22;50653;47.810;13.022;2023-05-18T11:46:34;13.80;99.90
14397;DHT22;50653;47.810;13.022;2023-05-18T11:49:06;13.80;99.90
14397;DHT22;50653;47.810;13.022;2023-05-18T11:51:32;13.80;99.90
14397;DHT22;50653;47.810;13.022;2023-05-18T11:53:58;13.80;99.90
14397;DHT22;50653;47.810;13.022;2023-05-18T11:56:25;13.70;99.90
14397;DHT22;50653;47.810;13.022;2023-05-18T11:59:12;13.70;99.90
14397;DHT22;50653;47.810;13.022;2023-05-18T12:01:40;13.70;99.90
14397;DHT22;50653;47.810;13.022;2023-05-18T12:04:08;13.60;99.90
14397;DHT22;50653;47.810;13.022;2023-05-18T12:06:34;13.60;99.90
14397;DHT22;50653;47.810;13.022;2023-05-18T12:09:02;13.50;99.90
14397;DHT22;50653;47.810;13.022;2023-05-18T12:11:29;13.60;99.90
14397;DHT22;50653;47.810;13.022;2023-05-18T12:13:56;13.60;99.90
14397;DHT22;50653;47.810;13.022;2023-05-18T12:16:22;13.60;99.90
14397;DHT22;50653;47.810;13.022;2023-05-18T12:18:50;13.70;99.90
14397;DHT22;50653;47.810;13.022;2023-05-18T12:21:22;13.70;99.90
14397;DHT22;50653;47.810;13.022;2023-05-18T12:23:57;13.70;99.90
14397;DHT22;50653;47.810;13.022;2023-05-18T12:26:23;13.60;99.90
14397;DHT22;50653;47.810;13.022;2023-05-18T12:28:59;13.60;99.90
14397;DHT22;50653;47.810;13.022;2023-05-18T12:31:26;13.70;99.90
14397;DHT22;50653;47.810;13.022;2023-05-18T12:33:55;13.60;99.90
14397;DHT22;50653;47.810;13.022;2023-05-18T12:36:21;13.70;99.90
14397;DHT22;50653;47.810;13.022;2023-05-18T12:38:49;13.80;99.90
14397;DHT22;50653;47.810;13.022;2023-05-18T12:41:25;13.80;99.90
14397;DHT22;50653;47.810;13.022;2023-05-18T12:43:51;13.90;99.90
14397;DHT22;50653;47.810;13.022;2023-05-18T12:46:22;13.90;99.90
14397;DHT22;50653;47.810;13.022;2023-05-18T12:48:58;14.00;99.90
14397;DHT22;50653;47.810;13.022;2023-05-18T12:51:31;14.00;99.90
14397;DHT22;50653;47.810;13.022;2023-05-18T12:53:57;14.00;99.90
14397;DHT22;50653;47.810;13.022;2023-05-18T12:56:23;14.00;99.90
14397;DHT22;50653;47.810;13.022;2023-05-18T12:58:59;14.00;99.90
14397;DHT22;50653;47.810;13.022;2023-05-18T13:01:28;13.90;99.90
14397;DHT22;50653;47.810;13.022;2023-05-18T13:03:58;14.00;99.90
14397;DHT22;50653;47.810;13.022;2023-05-18T13:06:24;14.20;99.90
14397;DHT22;50653;47.810;13.022;2023-05-18T13:08:54;14.10;99.90
14397;DHT22;50653;47.810;13.022;2023-05-18T13:11:25;14.30;99.90
14397;DHT22;50653;47.810;13.022;2023-05-18T13:13:58;14.30;99.90
14397;DHT22;50653;47.810;13.022;2023-05-18T13:16:27;14.40;99.90
14397;DHT22;50653;47.810;13.022;2023-05-18T13:18:58;14.30;99.90
14397;DHT22;50653;47.810;13.022;2023-05-18T13:21:24;14.40;99.90
14397;DHT22;50653;47.810;13.022;2023-05-18T13:23:51;14.50;99.90
14397;DHT22;50653;47.810;13.022;2023-05-18T13:26:17;14.60;99.90
14397;DHT22;50653;47.810;13.022;2023-05-18T13:28:45;14.60;99.90
14397;DHT22;50653;47.810;13.022;2023-05-18T13:31:10;14.50;99.90
14397;DHT22;50653;47.810;13.022;2023-05-18T13:33:36;14.30;99.90
14397;DHT22;50653;47.810;13.022;2023-05-18T13:36:02;14.30;99.90
14397;DHT22;50653;47.810;13.022;2023-05-18T13:38:27;14.40;99.90
14397;DHT22;50653;47.810;13.022;2023-05-18T13:40:53;14.40;99.90
14397;DHT22;50653;47.810;13.022;2023-05-18T13:43:20;14.30;99.90
14397;DHT22;50653;47.810;13.022;2023-05-18T13:45:45;14.30;99.90
14397;DHT22;50653;47.810;13.022;2023-05-18T13:48:11;14.30;99.90
14397;DHT22;50653;47.810;13.022;2023-05-18T13:50:37;14.30;99.90
14397;DHT22;50653;47.810;13.022;2023-05-18T13:53:03;14.30;99.90
14397;DHT22;50653;47.810;13.022;2023-05-18T13:55:29;14.20;99.90
14397;DHT22;50653;47.810;13.022;2023-05-18T13:57:54;14.10;99.90
14397;DHT22;50653;47.810;13.022;2023-05-18T14:00:20;14.10;99.90
14397;DHT22;50653;47.810;13.022;2023-05-18T14:02:46;14.00;99.90
14397;DHT22;50653;47.810;13.022;2023-05-18T14:05:12;13.90;99.90
14397;DHT22;50653;47.810;13.022;2023-05-18T14:07:42;13.80;99.90
14397;DHT22;50653;47.810;13.022;2023-05-18T14:10:09;13.80;99.90
14397;DHT22;50653;47.810;13.022;2023-05-18T14:12:35;13.70;99.90
14397;DHT22;50653;47.810;13.022;2023-05-18T14:15:02;13.60;99.90
14397;DHT22;50653;47.810;13.022;2023-05-18T14:17:28;13.70;99.90
14397;DHT22;50653;47.810;13.022;2023-05-18T14:19:54;13.70;99.90
14397;DHT22;50653;47.810;13.022;2023-05-18T14:22:20;13.60;99.90
14397;DHT22;50653;47.810;13.022;2023-05-18T14:24:47;13.60;99.90
14397;DHT22;50653;47.810;13.022;2023-05-18T14:27:13;13.60;99.90
14397;DHT22;50653;47.810;13.022;2023-05-18T14:29:38;13.50;99.90
14397;DHT22;50653;47.810;13.022;2023-05-18T14:32:04;13.30;99.90
14397;DHT22;50653;47.810;13.022;2023-05-18T14:34:30;13.40;99.90
14397;DHT22;50653;47.810;13.022;2023-05-18T14:36:56;13.40;99.90
14397;DHT22;50653;47.810;13.022;2023-05-18T14:39:21;13.50;99.90
14397;DHT22;50653;47.810;13.022;2023-05-18T14:41:47;13.30;99.90
14397;DHT22;50653;47.810;13.022;2023-05-18T14:44:13;13.40;99.90
14397;DHT22;50653;47.810;13.022;2023-05-18T14:46:39;13.40;99.90
14397;DHT22;50653;47.810;13.022;2023-05-18T14:49:05;13.20;99.90
14397;DHT22;50653;47.810;13.022;2023-05-18T14:51:31;13.30;99.90
14397;DHT22;50653;47.810;13.022;2023-05-18T14:53:57;13.30;99.90
14397;DHT22;50653;47.810;13.022;2023-05-18T14:56:22;12.90;99.90
14397;DHT22;50653;47.810;13.022;2023-05-18T14:58:48;13.10;99.90
14397;DHT22;50653;47.810;13.022;2023-05-18T15:01:14;13.20;99.90
14397;DHT22;50653;47.810;13.022;2023-05-18T15:03:39;13.20;99.90
14397;DHT22;50653;47.810;13.022;2023-05-18T15:06:05;13.20;99.90
14397;DHT22;50653;47.810;13.022;2023-05-18T15:08:31;13.10;99.90
14397;DHT22;50653;47.810;13.022;2023-05-18T15:10:56;13.10;99.90
14397;DHT22;50653;47.810;13.022;2023-05-18T15:13:22;13.10;99.90
14397;DHT22;50653;47.810;13.022;2023-05-18T15:15:48;13.00;99.90
14397;DHT22;50653;47.810;13.022;2023-05-18T15:18:14;13.10;99.90
14397;DHT22;50653;47.810;13.022;2023-05-18T15:20:39;13.00;99.90
14397;DHT22;50653;47.810;13.022;2023-05-18T15:23:11;13.10;99.90
14397;DHT22;50653;47.810;13.022;2023-05-18T15:25:37;13.00;99.90
14397;DHT22;50653;47.810;13.022;2023-05-18T15:28:03;13.00;99.90
14397;DHT22;50653;47.810;13.022;2023-05-18T15:30:29;13.00;99.90
14397;DHT22;50653;47.810;13.022;2023-05-18T15:32:55;13.00;99.90
14397;DHT22;50653;47.810;13.022;2023-05-18T15:35:21;13.00;99.90
14397;DHT22;50653;47.810;13.022;2023-05-18T15:37:47;13.10;99.90
14397;DHT22;50653;47.810;13.022;2023-05-18T15:40:15;12.90;99.90
14397;DHT22;50653;47.810;13.022;2023-05-18T15:42:41;12.80;99.90